createdAt,value
2023-01-28T00:02:09.641Z,101278.77
2023-01-28T00:04:37.934Z,101283.39
2023-01-28T00:07:06.619Z,101281.47
2023-01-28T00:09:34.796Z,101281.66
2023-01-28T00:12:03.180Z,101283.31
2023-01-28T00:14:31.771Z,101286.33
2023-01-28T00:17:00.361Z,101286.36
2023-01-28T00:19:28.848Z,101284.01
2023-01-28T00:21:57.023Z,101284.89
2023-01-28T00:24:26.072Z,101284.91
2023-01-28T00:26:54.614Z,101283.20
2023-01-28T00:29:23.260Z,101284.84
2023-01-28T00:31:51.865Z,101283.65
2023-01-28T00:34:21.198Z,101284.27
2023-01-28T00:36:58.085Z,101285.67
2023-01-28T00:39:27.446Z,101280.89
2023-01-28T00:41:55.873Z,101279.92
2023-01-28T00:44:26.404Z,101279.36
2023-01-28T00:46:54.798Z,101272.44
2023-01-28T00:49:23.987Z,101278.40
2023-01-28T00:51:52.387Z,101280.66
2023-01-28T00:54:21.074Z,101280.33
2023-01-28T00:56:49.245Z,101274.32
2023-01-28T00:59:17.854Z,101279.48
2023-01-28T01:01:46.417Z,101281.06
2023-01-28T01:04:27.082Z,101285.17
2023-01-28T01:06:55.680Z,101278.21
2023-01-28T01:09:24.519Z,101272.67
2023-01-28T01:11:52.855Z,101274.02
2023-01-28T01:14:21.039Z,101268.30
2023-01-28T01:16:49.244Z,101264.74
2023-01-28T01:19:20.466Z,101267.80
2023-01-28T01:21:50.921Z,101270.63
2023-01-28T01:24:19.550Z,101273.64
2023-01-28T01:26:48.175Z,101272.23
2023-01-28T01:29:16.565Z,101278.95
2023-01-28T01:31:45.396Z,101279.45
2023-01-28T01:34:13.840Z,101279.65
2023-01-28T01:36:44.206Z,101284.14
2023-01-28T01:39:13.343Z,101287.44
2023-01-28T01:41:42.063Z,101288.82
2023-01-28T01:44:49.027Z,101293.52
2023-01-28T01:47:18.984Z,101294.38
2023-01-28T01:49:47.639Z,101294.36
2023-01-28T01:52:22.778Z,101300.38
2023-01-28T01:54:53.110Z,101301.08
2023-01-28T01:57:27.948Z,101303.56
2023-01-28T01:59:58.440Z,101302.64
2023-01-28T02:02:27.021Z,101302.23
2023-01-28T02:04:55.352Z,101296.80
2023-01-28T02:07:23.628Z,101291.96
2023-01-28T02:09:51.911Z,101292.63
2023-01-28T02:12:25.111Z,101291.84
2023-01-28T02:15:01.568Z,101292.80
2023-01-28T02:17:31.111Z,101295.84
2023-01-28T02:20:03.248Z,101296.94
2023-01-28T02:23:13.304Z,101295.95
2023-01-28T02:26:09.987Z,101295.51
2023-01-28T02:28:54.981Z,101297.68
2023-01-28T02:31:33.004Z,101297.69
2023-01-28T02:34:29.303Z,101298.08
2023-01-28T02:37:24.189Z,101299.42
2023-01-28T02:39:58.287Z,101301.80
2023-01-28T02:42:32.730Z,101305.04
2023-01-28T02:45:01.333Z,101307.59
2023-01-28T02:47:49.252Z,101307.21
2023-01-28T02:50:20.983Z,101309.27
2023-01-28T02:53:21.325Z,101309.55
2023-01-28T02:56:01.887Z,101315.06
2023-01-28T02:58:33.449Z,101312.80
2023-01-28T03:01:17.818Z,101309.38
2023-01-28T03:03:45.977Z,101310.80
2023-01-28T03:06:21.013Z,101314.07
2023-01-28T03:09:20.721Z,101317.69
2023-01-28T03:12:34.422Z,101315.33
2023-01-28T03:15:44.499Z,101318.19
2023-01-28T03:18:42.009Z,101309.79
2023-01-28T03:21:50.645Z,101310.34
2023-01-28T03:24:43.564Z,101306.02
2023-01-28T03:27:57.885Z,101308.46
2023-01-28T03:31:11.098Z,101313.47
2023-01-28T03:34:07.112Z,101304.33
2023-01-28T03:36:51.878Z,101306.20
2023-01-28T03:39:58.376Z,101310.58
2023-01-28T03:42:26.609Z,101312.67
2023-01-28T03:45:17.242Z,101311.42
2023-01-28T03:47:47.418Z,101316.89
2023-01-28T03:50:17.873Z,101319.55
2023-01-28T03:53:14.901Z,101313.95
2023-01-28T03:55:51.177Z,101317.41
2023-01-28T03:58:21.086Z,101317.31
2023-01-28T04:00:49.559Z,101321.64
2023-01-28T04:03:20.632Z,101321.50
2023-01-28T04:06:02.022Z,101323.47
2023-01-28T04:08:52.983Z,101325.41
2023-01-28T04:11:32.649Z,101330.17
2023-01-28T04:14:04.187Z,101330.85
2023-01-28T04:17:11.194Z,101328.48
2023-01-28T04:19:40.548Z,101329.52
2023-01-28T04:22:11.535Z,101330.01
2023-01-28T04:24:41.732Z,101337.11
2023-01-28T04:27:10.521Z,101335.55
2023-01-28T04:29:39.411Z,101338.55
2023-01-28T04:32:25.807Z,101335.54
2023-01-28T04:35:08.032Z,101334.34
2023-01-28T04:37:51.441Z,101331.16
2023-01-28T04:40:49.983Z,101333.09
2023-01-28T04:43:27.401Z,101339.55
2023-01-28T04:46:12.475Z,101344.84
2023-01-28T04:48:54.666Z,101343.80
2023-01-28T04:51:43.524Z,101344.14
2023-01-28T04:54:50.684Z,101343.39
2023-01-28T04:57:19.167Z,101342.00
2023-01-28T04:59:47.780Z,101338.75
2023-01-28T05:02:17.453Z,101346.02
2023-01-28T05:04:47.513Z,101342.48
2023-01-28T05:07:30.613Z,101342.16
2023-01-28T05:09:59.104Z,101342.36
2023-01-28T05:12:27.964Z,101350.86
2023-01-28T05:14:58.120Z,101362.08
2023-01-28T05:17:28.135Z,101364.41
2023-01-28T05:19:56.739Z,101365.30
2023-01-28T05:22:26.151Z,101367.75
2023-01-28T05:25:17.538Z,101370.56
2023-01-28T05:27:51.254Z,101369.48
2023-01-28T05:30:21.255Z,101370.00
2023-01-28T05:32:50.100Z,101373.71
2023-01-28T05:35:23.783Z,101376.64
2023-01-28T05:37:52.369Z,101376.12
2023-01-28T05:40:21.382Z,101384.30
2023-01-28T05:42:50.056Z,101385.48
2023-01-28T05:45:26.565Z,101388.03
2023-01-28T05:48:06.000Z,101388.73
2023-01-28T05:50:48.273Z,101387.33
2023-01-28T05:53:21.946Z,101389.08
2023-01-28T05:55:56.198Z,101397.68
2023-01-28T05:58:27.746Z,101402.43
2023-01-28T06:00:56.693Z,101402.98
2023-01-28T06:03:28.813Z,101399.91
2023-01-28T06:05:57.913Z,101399.96
2023-01-28T06:08:26.096Z,101403.63
2023-01-28T06:10:54.587Z,101402.02
2023-01-28T06:13:25.321Z,101403.19
2023-01-28T06:16:16.793Z,101405.08
2023-01-28T06:19:04.246Z,101402.64
2023-01-28T06:21:32.639Z,101405.80
2023-01-28T06:24:00.992Z,101411.79
2023-01-28T06:26:29.399Z,101411.23
2023-01-28T06:28:57.685Z,101406.73
2023-01-28T06:31:26.068Z,101408.08
2023-01-28T06:33:54.246Z,101407.86
2023-01-28T06:36:23.142Z,101409.40
2023-01-28T06:38:51.326Z,101410.37
2023-01-28T06:41:19.505Z,101414.06
2023-01-28T06:43:48.094Z,101413.73
2023-01-28T06:46:16.936Z,101417.13
2023-01-28T06:48:45.477Z,101420.73
2023-01-28T06:51:13.764Z,101416.83
2023-01-28T06:53:42.255Z,101421.45
2023-01-28T06:56:11.099Z,101418.02
2023-01-28T06:58:39.838Z,101424.03
2023-01-28T07:01:09.031Z,101423.77
2023-01-28T07:03:37.419Z,101422.56
2023-01-28T07:06:06.633Z,101421.45
2023-01-28T07:08:35.871Z,101411.20
2023-01-28T07:11:04.745Z,101413.52
2023-01-28T07:13:33.310Z,101414.31
2023-01-28T07:16:02.114Z,101413.36
2023-01-28T07:18:30.693Z,101416.80
2023-01-28T07:20:59.180Z,101417.31
2023-01-28T07:23:29.083Z,101409.14
2023-01-28T07:26:04.651Z,101411.52
2023-01-28T07:28:32.978Z,101409.44
2023-01-28T07:31:01.741Z,101410.98
2023-01-28T07:33:30.109Z,101408.23
2023-01-28T07:35:58.390Z,101412.86
2023-01-28T07:38:26.710Z,101413.45
2023-01-28T07:40:54.848Z,101407.00
2023-01-28T07:43:23.952Z,101412.10
2023-01-28T07:45:52.743Z,101406.02
2023-01-28T07:48:21.342Z,101412.48
2023-01-28T07:50:51.303Z,101414.95
2023-01-28T07:53:20.546Z,101410.91
2023-01-28T07:55:48.848Z,101406.81
2023-01-28T07:58:17.943Z,101405.10
2023-01-28T08:00:46.223Z,101407.73
2023-01-28T08:03:16.770Z,101409.05
2023-01-28T08:05:47.818Z,101405.80
2023-01-28T08:08:17.216Z,101402.53
2023-01-28T08:10:46.178Z,101402.63
2023-01-28T08:13:15.745Z,101402.08
2023-01-28T08:15:44.936Z,101402.80
2023-01-28T08:18:15.046Z,101397.16
2023-01-28T08:20:46.511Z,101397.02
2023-01-28T08:23:16.419Z,101393.81
2023-01-28T08:25:46.438Z,101400.02
2023-01-28T08:28:16.627Z,101401.55
2023-01-28T08:30:45.413Z,101405.86
2023-01-28T08:33:16.004Z,101405.29
2023-01-28T08:35:44.979Z,101406.20
2023-01-28T08:38:18.026Z,101399.83
2023-01-28T08:40:50.766Z,101402.92
2023-01-28T08:43:19.162Z,101402.29
2023-01-28T08:45:47.643Z,101397.83
2023-01-28T08:48:17.968Z,101398.66
2023-01-28T08:50:46.579Z,101396.84
2023-01-28T08:53:18.074Z,101398.18
2023-01-28T08:55:47.020Z,101395.10
2023-01-28T08:58:17.352Z,101396.73
2023-01-28T09:00:46.580Z,101399.39
2023-01-28T09:03:15.723Z,101397.63
2023-01-28T09:05:44.343Z,101394.77
2023-01-28T09:08:14.783Z,101392.14
2023-01-28T09:10:43.361Z,101386.95
2023-01-28T09:13:16.366Z,101390.84
2023-01-28T09:15:44.888Z,101384.08
2023-01-28T09:18:13.430Z,101387.02
2023-01-28T09:20:41.702Z,101375.13
2023-01-28T09:23:10.662Z,101374.27
2023-01-28T09:25:39.007Z,101368.84
2023-01-28T09:28:07.701Z,101370.17
2023-01-28T09:30:37.608Z,101364.91
2023-01-28T09:33:07.509Z,101366.41
2023-01-28T09:35:37.041Z,101365.58
2023-01-28T09:38:05.928Z,101363.90
2023-01-28T09:40:43.640Z,101364.03
2023-01-28T09:43:41.995Z,101361.80
2023-01-28T09:46:16.571Z,101358.40
2023-01-28T09:48:51.249Z,101355.55
2023-01-28T09:51:44.964Z,101354.89
2023-01-28T09:54:19.626Z,101357.88
2023-01-28T09:56:51.948Z,101358.61
2023-01-28T09:59:23.049Z,101355.00
2023-01-28T10:02:14.660Z,101348.86
2023-01-28T10:04:46.319Z,101351.71
2023-01-28T10:07:56.564Z,101351.07
2023-01-28T10:10:42.703Z,101354.33
2023-01-28T10:13:17.184Z,101352.54
2023-01-28T10:15:49.216Z,101358.10
2023-01-28T10:18:27.048Z,101362.02
2023-01-28T10:21:02.792Z,101362.14
2023-01-28T10:23:38.033Z,101359.21
2023-01-28T10:26:21.359Z,101357.36
2023-01-28T10:28:55.305Z,101356.09
2023-01-28T10:31:30.260Z,101355.35
2023-01-28T10:33:59.178Z,101356.11
2023-01-28T10:36:27.692Z,101347.96
2023-01-28T10:38:56.404Z,101343.44
2023-01-28T10:41:26.713Z,101345.39
2023-01-28T10:43:57.549Z,101343.52
2023-01-28T10:46:36.882Z,101345.05
2023-01-28T10:49:28.120Z,101344.17
2023-01-28T10:51:56.594Z,101338.30
2023-01-28T10:54:28.046Z,101335.55
2023-01-28T10:57:02.112Z,101327.28
2023-01-28T10:59:34.754Z,101324.48
2023-01-28T11:02:06.492Z,101324.69
2023-01-28T11:04:36.422Z,101323.89
2023-01-28T11:07:16.460Z,101319.00
2023-01-28T11:09:50.074Z,101321.54
2023-01-28T11:12:28.133Z,101323.48
2023-01-28T11:15:02.023Z,101321.13
2023-01-28T11:17:32.340Z,101320.05
2023-01-28T11:20:19.530Z,101326.62
2023-01-28T11:22:49.415Z,101321.23
2023-01-28T11:25:31.540Z,101322.57
2023-01-28T11:28:02.975Z,101318.08
2023-01-28T11:30:41.268Z,101309.04
2023-01-28T11:33:22.987Z,101315.07
2023-01-28T11:36:05.249Z,101316.77
2023-01-28T11:38:34.697Z,101316.11
2023-01-28T11:41:03.185Z,101313.40
2023-01-28T11:43:32.315Z,101313.48
2023-01-28T11:46:18.931Z,101310.70
2023-01-28T11:49:12.747Z,101312.15
2023-01-28T11:51:59.043Z,101304.92
2023-01-28T11:55:05.192Z,101301.85
2023-01-28T11:57:38.073Z,101297.61
2023-01-28T12:00:31.707Z,101296.19
2023-01-28T12:03:09.840Z,101294.52
2023-01-28T12:05:55.315Z,101293.72
2023-01-28T12:08:46.417Z,101294.31
2023-01-28T12:11:57.065Z,101292.86
2023-01-28T12:14:48.685Z,101294.42
2023-01-28T12:17:54.664Z,101297.09
2023-01-28T12:20:26.281Z,101294.17
2023-01-28T12:23:13.394Z,101290.82
2023-01-28T12:25:46.383Z,101295.86
2023-01-28T12:28:30.741Z,101296.52
2023-01-28T12:31:15.211Z,101297.05
2023-01-28T12:33:59.843Z,101296.79
2023-01-28T12:36:28.159Z,101294.86
2023-01-28T12:39:24.444Z,101295.98
2023-01-28T12:42:13.904Z,101294.48
2023-01-28T12:44:52.419Z,101297.52
2023-01-28T12:47:34.934Z,101303.54
2023-01-28T12:50:18.271Z,101307.11
2023-01-28T12:53:12.502Z,101309.42
2023-01-28T12:55:47.154Z,101305.97
2023-01-28T12:58:37.544Z,101304.09
2023-01-28T13:01:11.657Z,101307.15
2023-01-28T13:03:52.424Z,101303.27
2023-01-28T13:06:33.293Z,101310.77
2023-01-28T13:09:11.908Z,101310.88
2023-01-28T13:11:41.508Z,101314.08
2023-01-28T13:14:12.470Z,101310.63
2023-01-28T13:16:41.317Z,101312.21
2023-01-28T13:19:18.657Z,101316.61
2023-01-28T13:21:50.309Z,101312.05
2023-01-28T13:24:23.395Z,101316.44
2023-01-28T13:26:55.282Z,101315.09
2023-01-28T13:29:30.211Z,101313.23
2023-01-28T13:32:01.776Z,101315.44
2023-01-28T13:34:33.905Z,101317.73
2023-01-28T13:37:29.076Z,101320.77
2023-01-28T13:40:23.702Z,101320.96
2023-01-28T13:43:34.467Z,101326.61
2023-01-28T13:46:06.154Z,101330.63
2023-01-28T13:48:51.999Z,101330.64
2023-01-28T13:51:31.395Z,101332.73
2023-01-28T13:54:06.876Z,101332.64
2023-01-28T13:56:56.856Z,101325.68
2023-01-28T13:59:59.533Z,101332.19
2023-01-28T14:02:56.560Z,101337.79
2023-01-28T14:05:51.141Z,101332.75
2023-01-28T14:08:53.918Z,101333.85
2023-01-28T14:11:53.714Z,101332.90
2023-01-28T14:14:40.213Z,101333.46
2023-01-28T14:17:14.426Z,101335.41
2023-01-28T14:19:44.818Z,101334.09
2023-01-28T14:22:19.299Z,101336.84
2023-01-28T14:24:48.788Z,101339.16
2023-01-28T14:27:20.717Z,101342.02
2023-01-28T14:30:08.898Z,101343.64
2023-01-28T14:32:44.951Z,101347.02
2023-01-28T14:35:19.693Z,101344.84
2023-01-28T14:37:48.268Z,101344.33
2023-01-28T14:40:17.739Z,101346.63
2023-01-28T14:42:50.876Z,101348.27
2023-01-28T14:45:38.499Z,101352.66
2023-01-28T14:48:26.740Z,101354.11
2023-01-28T14:51:19.580Z,101353.91
2023-01-28T14:54:10.889Z,101359.95
2023-01-28T14:56:44.894Z,101364.76
2023-01-28T14:59:34.463Z,101370.63
2023-01-28T15:02:05.053Z,101369.75
2023-01-28T15:04:34.891Z,101375.63
2023-01-28T15:07:27.048Z,101378.58
2023-01-28T15:10:08.182Z,101386.19
2023-01-28T15:12:41.011Z,101389.58
2023-01-28T15:15:21.771Z,101386.44
2023-01-28T15:17:50.733Z,101383.48
2023-01-28T15:20:22.109Z,101390.05
2023-01-28T15:22:52.852Z,101387.55
2023-01-28T15:25:23.396Z,101388.88
2023-01-28T15:27:55.151Z,101391.04
2023-01-28T15:30:27.059Z,101391.02
2023-01-28T15:32:59.572Z,101391.16
2023-01-28T15:35:28.420Z,101399.02
2023-01-28T15:37:57.086Z,101399.92
2023-01-28T15:40:26.387Z,101406.02
2023-01-28T15:42:57.748Z,101407.19
2023-01-28T15:45:29.710Z,101415.20
2023-01-28T15:48:06.601Z,101413.52
2023-01-28T15:50:35.071Z,101418.20
2023-01-28T15:53:09.309Z,101418.23
2023-01-28T15:55:40.331Z,101419.58
2023-01-28T15:58:30.441Z,101425.68
2023-01-28T16:01:05.060Z,101426.47
2023-01-28T16:03:34.515Z,101429.75
2023-01-28T16:06:10.125Z,101429.34
2023-01-28T16:08:59.227Z,101431.34
2023-01-28T16:11:32.654Z,101431.40
2023-01-28T16:14:01.578Z,101433.42
2023-01-28T16:16:34.616Z,101434.68
2023-01-28T16:19:06.760Z,101436.42
2023-01-28T16:21:43.695Z,101432.88
2023-01-28T16:24:21.412Z,101429.65
2023-01-28T16:27:03.504Z,101429.37
2023-01-28T16:29:32.437Z,101435.83
2023-01-28T16:32:01.751Z,101437.80
2023-01-28T16:34:30.174Z,101434.65
2023-01-28T16:37:00.393Z,101436.80
2023-01-28T16:39:30.233Z,101439.90
2023-01-28T16:41:58.607Z,101435.73
2023-01-28T16:44:26.988Z,101439.59
2023-01-28T16:46:55.658Z,101438.77
2023-01-28T16:49:24.902Z,101442.20
2023-01-28T16:51:53.762Z,101445.79
2023-01-28T16:54:22.667Z,101451.04
2023-01-28T16:56:51.161Z,101453.19
2023-01-28T16:59:19.540Z,101458.63
2023-01-28T17:01:49.127Z,101458.11
2023-01-28T17:04:17.482Z,101461.05
2023-01-28T17:06:46.127Z,101464.31
2023-01-28T17:09:15.360Z,101464.05
2023-01-28T17:11:44.061Z,101467.23
2023-01-28T17:14:12.609Z,101468.16
2023-01-28T17:16:41.039Z,101468.92
2023-01-28T17:19:09.396Z,101474.09
2023-01-28T17:21:37.789Z,101474.72
2023-01-28T17:24:06.964Z,101475.71
2023-01-28T17:26:36.617Z,101476.66
2023-01-28T17:29:06.585Z,101477.08
2023-01-28T17:31:36.312Z,101478.58
2023-01-28T17:34:07.275Z,101478.64
2023-01-28T17:36:35.830Z,101476.08
2023-01-28T17:39:06.148Z,101476.75
2023-01-28T17:41:34.777Z,101476.23
2023-01-28T17:44:04.717Z,101486.67
2023-01-28T17:46:33.379Z,101482.29
2023-01-28T17:49:02.326Z,101479.88
2023-01-28T17:51:30.765Z,101483.59
2023-01-28T17:53:59.252Z,101481.86
2023-01-28T17:56:29.167Z,101476.48
2023-01-28T17:59:02.878Z,101477.08
2023-01-28T18:01:31.601Z,101475.48
2023-01-28T18:04:00.629Z,101476.35
2023-01-28T18:06:33.420Z,101476.16
2023-01-28T18:09:02.372Z,101473.13
2023-01-28T18:11:32.419Z,101479.75
2023-01-28T18:14:01.364Z,101480.73
2023-01-28T18:16:29.750Z,101483.96
2023-01-28T18:18:58.158Z,101488.52
2023-01-28T18:21:51.853Z,101491.30
2023-01-28T18:24:26.256Z,101491.77
2023-01-28T18:26:58.406Z,101493.98
2023-01-28T18:29:31.308Z,101493.40
2023-01-28T18:31:59.926Z,101499.93
2023-01-28T18:34:31.773Z,101503.45
2023-01-28T18:37:00.627Z,101506.44
2023-01-28T18:39:31.226Z,101512.11
2023-01-28T18:42:00.345Z,101513.13
2023-01-28T18:44:30.350Z,101512.14
2023-01-28T18:46:59.180Z,101513.26
2023-01-28T18:49:27.673Z,101516.73
2023-01-28T18:51:56.463Z,101520.44
2023-01-28T18:54:25.059Z,101522.30
2023-01-28T18:56:53.334Z,101517.06
2023-01-28T18:59:21.923Z,101518.98
2023-01-28T19:01:50.853Z,101516.59
2023-01-28T19:04:19.512Z,101517.71
2023-01-28T19:06:49.855Z,101518.94
2023-01-28T19:09:18.321Z,101522.95
2023-01-28T19:11:48.447Z,101526.32
2023-01-28T19:14:17.332Z,101526.09
2023-01-28T19:16:45.692Z,101525.29
2023-01-28T19:19:14.011Z,101524.63
2023-01-28T19:21:42.294Z,101526.93
2023-01-28T19:24:12.781Z,101527.83
2023-01-28T19:26:44.234Z,101527.15
2023-01-28T19:29:15.635Z,101526.27
2023-01-28T19:31:44.741Z,101531.91
2023-01-28T19:34:13.232Z,101531.52
2023-01-28T19:36:42.551Z,101533.69
2023-01-28T19:39:12.615Z,101534.60
2023-01-28T19:41:41.251Z,101536.45
2023-01-28T19:44:10.454Z,101539.95
2023-01-28T19:46:40.976Z,101540.85
2023-01-28T19:49:10.896Z,101549.34
2023-01-28T19:51:39.175Z,101551.67
2023-01-28T19:54:07.461Z,101552.66
2023-01-28T19:56:36.357Z,101556.37
2023-01-28T19:59:05.147Z,101557.45
2023-01-28T20:01:33.849Z,101560.36
2023-01-28T20:04:02.535Z,101559.97
2023-01-28T20:06:32.241Z,101563.67
2023-01-28T20:09:14.772Z,101567.21
2023-01-28T20:11:43.044Z,101570.60
2023-01-28T20:14:11.421Z,101566.94
2023-01-28T20:16:39.801Z,101572.23
2023-01-28T20:19:14.537Z,101573.36
2023-01-28T20:21:43.299Z,101573.47
2023-01-28T20:24:13.319Z,101576.60
2023-01-28T20:26:43.261Z,101580.74
2023-01-28T20:29:15.476Z,101580.08
2023-01-28T20:31:44.525Z,101583.96
2023-01-28T20:34:17.910Z,101583.66
2023-01-28T20:36:46.533Z,101588.81
2023-01-28T20:39:15.125Z,101584.47
2023-01-28T20:41:43.703Z,101582.48
2023-01-28T20:44:12.300Z,101588.38
2023-01-28T20:46:40.690Z,101591.89
2023-01-28T20:49:10.419Z,101594.64
2023-01-28T20:51:39.427Z,101591.15
2023-01-28T20:54:07.678Z,101591.21
2023-01-28T20:56:35.855Z,101596.20
2023-01-28T20:59:06.152Z,101598.19
2023-01-28T21:01:36.619Z,101596.27
2023-01-28T21:04:05.939Z,101603.42
2023-01-28T21:06:35.284Z,101607.27
2023-01-28T21:09:05.106Z,101604.67
2023-01-28T21:11:34.038Z,101604.35
2023-01-28T21:14:02.427Z,101602.63
2023-01-28T21:16:30.705Z,101608.29
2023-01-28T21:19:01.551Z,101611.02
2023-01-28T21:21:30.248Z,101609.69
2023-01-28T21:24:01.978Z,101612.95
2023-01-28T21:26:30.392Z,101613.02
2023-01-28T21:28:58.872Z,101609.33
2023-01-28T21:31:27.774Z,101609.13
2023-01-28T21:33:57.661Z,101611.74
2023-01-28T21:36:26.933Z,101612.79
2023-01-28T21:38:57.392Z,101615.94
2023-01-28T21:41:26.299Z,101615.04
2023-01-28T21:43:57.367Z,101612.17
2023-01-28T21:46:28.633Z,101616.64
2023-01-28T21:49:02.121Z,101610.38
2023-01-28T21:51:36.576Z,101607.98
2023-01-28T21:54:16.495Z,101603.09
2023-01-28T21:56:46.919Z,101603.31
2023-01-28T21:59:28.938Z,101598.41
2023-01-28T22:01:57.902Z,101602.52
2023-01-28T22:04:37.776Z,101604.10
2023-01-28T22:07:08.598Z,101603.41
2023-01-28T22:09:37.875Z,101605.48
2023-01-28T22:12:08.190Z,101603.16
2023-01-28T22:14:38.149Z,101603.83
2023-01-28T22:17:09.271Z,101604.16
2023-01-28T22:19:39.001Z,101597.13
2023-01-28T22:22:07.334Z,101599.35
2023-01-28T22:24:35.723Z,101599.41
2023-01-28T22:27:04.471Z,101600.70
2023-01-28T22:29:33.887Z,101599.82
2023-01-28T22:32:04.989Z,101594.90
2023-01-28T22:34:33.316Z,101592.63
2023-01-28T22:37:01.494Z,101585.95
2023-01-28T22:39:29.877Z,101586.98
2023-01-28T22:41:58.263Z,101585.08
2023-01-28T22:44:27.259Z,101590.38
2023-01-28T22:46:55.705Z,101588.10
2023-01-28T22:49:26.699Z,101586.15
2023-01-28T22:51:54.866Z,101586.81
2023-01-28T22:54:23.043Z,101583.78
2023-01-28T22:56:51.941Z,101580.66
2023-01-28T22:59:20.429Z,101579.02
2023-01-28T23:01:48.735Z,101585.55
2023-01-28T23:04:16.992Z,101582.70
2023-01-28T23:06:45.377Z,101580.94
2023-01-28T23:09:13.967Z,101583.73
2023-01-28T23:11:42.150Z,101580.57
2023-01-28T23:14:29.116Z,101581.88
2023-01-28T23:17:16.275Z,101583.45
2023-01-28T23:20:02.874Z,101583.71
2023-01-28T23:22:51.951Z,101585.08
2023-01-28T23:25:22.660Z,101582.64
2023-01-28T23:27:51.145Z,101585.13
2023-01-28T23:30:24.747Z,101579.45
2023-01-28T23:32:56.206Z,101581.94
2023-01-28T23:35:28.356Z,101578.29
2023-01-28T23:37:56.759Z,101579.73
2023-01-28T23:40:27.336Z,101583.33
2023-01-28T23:42:56.526Z,101580.92
2023-01-28T23:45:25.294Z,101581.52
2023-01-28T23:47:53.779Z,101583.51
2023-01-28T23:50:22.980Z,101584.09
2023-01-28T23:52:51.467Z,101580.77
2023-01-28T23:55:19.952Z,101578.49
2023-01-28T23:57:48.643Z,101579.52
